KFHU/FHU METAR and TAF weather

Enter ICAO airport designator
Station Type Date Time Source
KFHU METAR 2019/08/21 02:58 UTC NOAA

KFHU 210258Z AUTO 25007KT 10SM CLR 31/05 A3007 RMK AO2 SLP095 T03080045 53004


Station Type Date Time Source
KFHU Decoded METAR 2019/08/21 02:58 UTC NOAA

Station name not available
Aug 20, 2019 - 10:58 PM EDT / 2019.08.21 0258 UTC
Wind: from the WSW (250 degrees) at 8 MPH (7 KT):0
Visibility: 10 mile(s):0
Sky conditions: clear
Temperature: 87.4 F (30.8 C)
Dew Point: 40.1 F (4.5 C)
Relative Humidity: 18%
Pressure (altimeter): 30.07 in. Hg (1018 hPa)
Pressure tendency: 0.01 inches (0.4 hPa) higher than three hours ago
ob: KFHU 210258Z AUTO 25007KT 10SM CLR 31/05 A3007 RMK AO2 SLP095 T03080045 53004
cycle: 3

Station Type Date Time Source
KFHU TAF 2019/08/21 02:09 UTC NOAA

TAF TAF KFHU 210206Z 2102/2208 VRB06KT 9999 SKC QNH3004INS
BECMG 2109/2110 17006KT 9999 FEW110 QNH3008INS
BECMG 2119/2120 30012G18KT 9999 SCT100 QNH2999INS
BECMG 2200/2201 VRB06KT 9999 SCT150 QNH2998INS TX37/2121Z TN18/2112Z

Example: see airport list